VVY YBCG-YSPT
Flight info
| Callsign | VVY |
|---|---|
| Flight time | 0h 12m |
| Altitude | 1500 |
| Route | NEN |
| Aircraft | R66/L-SFG/C |
Departure
| Time | 2026-05-08 04:41 |
|---|---|
| Airport | Gold Coast Airport (YBCG) |
Arrival
| Time | 2026-05-08 04:53 |
|---|---|
| Airport | Southport Airport (YSPT) |
| Time | Latitude | Longitude | Altitude | Speed | Heading |
|---|---|---|---|---|---|
| 2026-05-08 04:33 | -28.16196 | 153.50815 | 19 ft | 0 kts | 134° |
| 2026-05-08 04:40 | -28.16187 | 153.50800 | 46 ft | 6 kts | 137° |
| 2026-05-08 04:40 | -28.16174 | 153.50796 | 109 ft | 4 kts | 341° |
| 2026-05-08 04:40 | -28.16101 | 153.50771 | 295 ft | 18 kts | 338° |
| 2026-05-08 04:40 | -28.15943 | 153.50665 | 519 ft | 38 kts | 330° |
| 2026-05-08 04:41 | -28.15720 | 153.50370 | 649 ft | 61 kts | 313° |
| 2026-05-08 04:41 | -28.15467 | 153.49899 | 755 ft | 75 kts | 304° |
| 2026-05-08 04:41 | -28.15267 | 153.49330 | 869 ft | 79 kts | 291° |
| 2026-05-08 04:41 | -28.15194 | 153.48704 | 981 ft | 83 kts | 270° |
| 2026-05-08 04:42 | -28.15253 | 153.48051 | 1068 ft | 84 kts | 269° |
| 2026-05-08 04:42 | -28.15190 | 153.47405 | 1132 ft | 82 kts | 293° |
| 2026-05-08 04:42 | -28.14893 | 153.46870 | 1183 ft | 80 kts | 311° |
| 2026-05-08 04:42 | -28.14446 | 153.46530 | 1309 ft | 76 kts | 330° |
| 2026-05-08 04:43 | -28.13967 | 153.46305 | 1457 ft | 74 kts | 334° |
| 2026-05-08 04:43 | -28.13443 | 153.46130 | 1498 ft | 85 kts | 337° |
| 2026-05-08 04:43 | -28.12875 | 153.45877 | 1492 ft | 89 kts | 321° |
| 2026-05-08 04:43 | -28.12437 | 153.45404 | 1488 ft | 87 kts | 300° |
| 2026-05-08 04:44 | -28.12177 | 153.44788 | 1486 ft | 86 kts | 288° |
| 2026-05-08 04:44 | -28.11968 | 153.44164 | 1485 ft | 83 kts | 288° |
| 2026-05-08 04:44 | -28.11763 | 153.43565 | 1493 ft | 82 kts | 288° |
| 2026-05-08 04:44 | -28.11549 | 153.42962 | 1489 ft | 83 kts | 290° |
| 2026-05-08 04:45 | -28.11332 | 153.42353 | 1484 ft | 83 kts | 291° |
| 2026-05-08 04:45 | -28.11084 | 153.41762 | 1488 ft | 84 kts | 295° |
| 2026-05-08 04:45 | -28.10808 | 153.41170 | 1488 ft | 85 kts | 298° |
| 2026-05-08 04:45 | -28.10428 | 153.40652 | 1492 ft | 86 kts | 310° |
| 2026-05-08 04:46 | -28.10073 | 153.40130 | 1489 ft | 82 kts | 296° |
| 2026-05-08 04:46 | -28.09700 | 153.39616 | 1491 ft | 91 kts | 314° |
| 2026-05-08 04:46 | -28.09197 | 153.39118 | 1490 ft | 100 kts | 315° |
| 2026-05-08 04:46 | -28.08733 | 153.38541 | 1487 ft | 99 kts | 300° |
| 2026-05-08 04:47 | -28.08382 | 153.37855 | 1486 ft | 102 kts | 297° |
| 2026-05-08 04:47 | -28.08022 | 153.37159 | 1484 ft | 103 kts | 302° |
| 2026-05-08 04:47 | -28.07487 | 153.36636 | 1483 ft | 104 kts | 332° |
| 2026-05-08 04:47 | -28.06785 | 153.36422 | 1489 ft | 105 kts | 338° |
| 2026-05-08 04:48 | -28.06083 | 153.36205 | 1480 ft | 102 kts | 340° |
| 2026-05-08 04:48 | -28.05410 | 153.36007 | 1491 ft | 102 kts | 341° |
| 2026-05-08 04:48 | -28.04719 | 153.35811 | 1490 ft | 104 kts | 339° |
| 2026-05-08 04:48 | -28.04026 | 153.35607 | 1488 ft | 105 kts | 338° |
| 2026-05-08 04:49 | -28.03314 | 153.35396 | 1483 ft | 106 kts | 341° |
| 2026-05-08 04:49 | -28.02598 | 153.35179 | 1481 ft | 105 kts | 336° |
| 2026-05-08 04:49 | -28.01921 | 153.34910 | 1483 ft | 100 kts | 332° |
| 2026-05-08 04:49 | -28.01318 | 153.34603 | 1486 ft | 91 kts | 328° |
| 2026-05-08 04:50 | -28.00764 | 153.34291 | 1488 ft | 89 kts | 327° |
| 2026-05-08 04:50 | -28.00204 | 153.33988 | 1482 ft | 90 kts | 338° |
| 2026-05-08 04:50 | -27.99579 | 153.33994 | 1484 ft | 93 kts | 4° |
| 2026-05-08 04:50 | -27.98948 | 153.34174 | 1484 ft | 93 kts | 5° |
| 2026-05-08 04:51 | -27.98315 | 153.34327 | 1483 ft | 92 kts | 2° |
| 2026-05-08 04:51 | -27.97697 | 153.34462 | 1484 ft | 90 kts | 4° |
| 2026-05-08 04:51 | -27.97095 | 153.34656 | 1480 ft | 89 kts | 10° |
| 2026-05-08 04:51 | -27.96510 | 153.34895 | 1480 ft | 88 kts | 8° |
| 2026-05-08 04:52 | -27.95938 | 153.35110 | 1459 ft | 87 kts | 7° |
| 2026-05-08 04:52 | -27.95374 | 153.35321 | 1316 ft | 84 kts | 12° |
| 2026-05-08 04:52 | -27.94885 | 153.35680 | 1158 ft | 81 kts | 22° |
| 2026-05-08 04:52 | -27.94398 | 153.35908 | 1019 ft | 72 kts | 9° |
| 2026-05-08 04:53 | -27.93940 | 153.36140 | 780 ft | 82 kts | 38° |
| 2026-05-08 04:53 | -27.93425 | 153.36519 | 438 ft | 79 kts | 21° |
| 2026-05-08 04:53 | -27.93017 | 153.36677 | 428 ft | 44 kts | 19° |
| 2026-05-08 04:53 | -27.92802 | 153.36794 | 276 ft | 29 kts | 29° |
| 2026-05-08 04:54 | -27.92666 | 153.36883 | 215 ft | 17 kts | 30° |
| 2026-05-08 04:54 | -27.92579 | 153.36931 | 127 ft | 13 kts | 34° |
| 2026-05-08 04:54 | -27.92510 | 153.36969 | 74 ft | 7 kts | 48° |
| 2026-05-08 04:54 | -27.92482 | 153.37006 | 58 ft | 8 kts | 52° |
| 2026-05-08 04:55 | -27.92463 | 153.37034 | 39 ft | 4 kts | 95° |
| 2026-05-08 04:55 | -27.92461 | 153.37046 | 23 ft | 0 kts | 84° |
| 2026-05-08 04:56 | -27.89333 | 153.37247 | 1061 ft | 2259 kts | 352° |
| 2026-05-08 04:57 | -27.85783 | 153.30172 | 1139 ft | 0 kts | 348° |
| 2026-05-08 04:57 | -27.86479 | 153.31181 | 669 ft | 0 kts | 72° |
| 2026-05-08 04:57 | -27.86410 | 153.31427 | 312 ft | 0 kts | 62° |